Time;durP1;ratioP1;P1;durP2;ratioP2;P2;SDS_P1;SDS_P2;PMS_P1;PMS_P2;Temp;Humidity;BMP_temperature;BMP_pressure;BME280_temperature;BME280_humidity;BME280_pressure;Samples;Min_cycle;Max_cycle;Signal;HPM_P1;HPM_P2
2022/11/14 00:00:13;;;;;;;37.80;21.90;;;9.50;77.80;;;;;;5019093;28;20387;-75
2022/11/14 00:02:39;;;;;;;36.05;23.88;;;9.40;79.80;;;;;;5019718;28;20037;-75
2022/11/14 00:05:08;;;;;;;33.35;20.42;;;9.40;79.20;;;;;;5028496;28;20022;-74
2022/11/14 00:07:34;;;;;;;33.42;23.00;;;9.40;80.90;;;;;;5028908;28;20399;-74
2022/11/14 00:10:00;;;;;;;31.23;21.98;;;9.30;80.00;;;;;;5027437;28;20029;-74
2022/11/14 00:12:26;;;;;;;29.80;19.95;;;9.30;80.10;;;;;;5023092;28;20082;-74
2022/11/14 00:14:52;;;;;;;31.90;19.38;;;9.20;79.50;;;;;;5025729;28;20033;-72
2022/11/14 00:17:18;;;;;;;35.92;21.95;;;9.20;81.20;;;;;;5013486;28;20084;-74
2022/11/14 00:19:43;;;;;;;46.03;25.05;;;9.10;81.10;;;;;;5019856;28;20014;-74
2022/11/14 00:22:09;;;;;;;41.63;24.48;;;9.10;81.10;;;;;;5025448;28;20030;-74
2022/11/14 00:24:35;;;;;;;38.83;26.73;;;9.10;80.20;;;;;;5022311;28;20050;-74
2022/11/14 00:27:01;;;;;;;38.45;23.92;;;9.00;80.70;;;;;;5022843;28;20042;-75
2022/11/14 00:29:26;;;;;;;34.45;22.00;;;9.00;81.00;;;;;;5027914;28;20653;-75
2022/11/14 00:31:53;;;;;;;38.40;24.52;;;9.00;80.60;;;;;;5026996;28;20060;-74
2022/11/14 00:34:20;;;;;;;37.00;24.83;;;9.00;80.50;;;;;;5018632;28;20030;-74
2022/11/14 00:36:46;;;;;;;36.83;22.60;;;8.90;81.80;;;;;;5023817;28;20363;-74
2022/11/14 00:39:13;;;;;;;40.85;25.92;;;8.90;82.10;;;;;;5030705;28;20477;-74
2022/11/14 00:41:40;;;;;;;35.78;25.02;;;8.90;81.30;;;;;;5018339;28;20084;-73
2022/11/14 00:44:06;;;;;;;33.47;21.58;;;8.90;81.40;;;;;;5024740;28;20127;-75
2022/11/14 00:46:33;;;;;;;38.53;25.40;;;8.90;81.20;;;;;;5022290;28;20068;-74
2022/11/14 00:48:58;;;;;;;36.38;25.15;;;8.80;81.40;;;;;;5025902;28;20319;-75
2022/11/14 00:51:24;;;;;;;40.05;26.15;;;8.80;81.00;;;;;;5018629;28;20440;-74
2022/11/14 00:53:50;;;;;;;38.15;24.17;;;8.80;81.60;;;;;;5022860;28;20033;-74
2022/11/14 00:56:15;;;;;;;40.90;27.42;;;8.80;81.30;;;;;;5018819;28;20036;-75
2022/11/14 00:58:41;;;;;;;40.17;26.88;;;8.80;82.40;;;;;;5017964;28;20035;-74
2022/11/14 01:01:06;;;;;;;38.88;27.27;;;8.70;82.30;;;;;;5017495;28;20026;-74
2022/11/14 01:03:32;;;;;;;44.80;28.67;;;8.70;81.80;;;;;;5027145;28;20021;-74
2022/11/14 01:06:07;;;;;;;42.33;27.92;;;8.70;81.40;;;;;;5016909;28;20099;-72
2022/11/14 01:08:33;;;;;;;42.38;27.52;;;8.70;81.30;;;;;;5023936;28;20455;-74
2022/11/14 01:10:59;;;;;;;46.67;30.33;;;8.60;81.30;;;;;;5009767;28;20113;-74
2022/11/14 01:13:30;;;;;;;49.28;31.55;;;8.60;82.10;;;;;;5027950;28;20036;-73
2022/11/14 01:16:02;;;;;;;45.35;30.20;;;8.60;81.80;;;;;;5029832;28;20116;-74
2022/11/14 01:18:29;;;;;;;41.50;26.67;;;8.60;81.80;;;;;;5024937;28;20021;-74
2022/11/14 01:20:55;;;;;;;45.17;29.05;;;8.60;81.90;;;;;;5020933;28;20377;-74
2022/11/14 01:23:21;;;;;;;43.58;29.63;;;8.50;81.80;;;;;;5021503;28;20046;-77
2022/11/14 01:25:46;;;;;;;43.22;25.92;;;8.50;82.10;;;;;;5029488;28;20105;-74
2022/11/14 01:28:18;;;;;;;40.13;27.52;;;8.50;82.10;;;;;;5022750;28;20049;-75
2022/11/14 01:30:46;;;;;;;39.60;27.17;;;8.40;82.80;;;;;;5025535;28;20505;-75
2022/11/14 01:33:38;;;;;;;41.15;25.48;;;8.40;82.10;;;;;;5028038;28;20101;-76
2022/11/14 01:36:24;;;;;;;39.53;24.40;;;8.40;82.70;;;;;;5029685;28;20082;-74
2022/11/14 01:39:11;;;;;;;41.67;26.10;;;8.30;83.10;;;;;;5027294;28;20033;-74
2022/11/14 01:41:37;;;;;;;46.20;28.60;;;8.30;83.60;;;;;;5010443;28;20028;-75
2022/11/14 01:44:16;;;;;;;46.33;29.42;;;8.30;83.30;;;;;;5020156;28;20026;-75
2022/11/14 01:46:50;;;;;;;43.65;31.13;;;8.20;83.30;;;;;;5008790;28;20133;-75
2022/11/14 01:49:25;;;;;;;47.72;30.10;;;8.20;83.70;;;;;;5017923;28;20136;-74
2022/11/14 01:52:02;;;;;;;48.80;28.35;;;8.20;83.60;;;;;;5011953;28;20068;-75
2022/11/14 01:54:36;;;;;;;45.20;28.02;;;8.10;83.70;;;;;;5026955;28;20476;-74
2022/11/14 01:57:05;;;;;;;49.75;29.70;;;8.10;83.40;;;;;;5023848;28;20479;-73
2022/11/14 01:59:35;;;;;;;51.85;33.00;;;8.10;83.10;;;;;;5026670;28;20049;-73
2022/11/14 02:02:21;;;;;;;45.53;28.02;;;8.10;83.20;;;;;;5021694;28;20042;-74
2022/11/14 02:05:03;;;;;;;48.47;29.40;;;8.10;83.10;;;;;;5028035;28;20021;-74
2022/11/14 02:07:33;;;;;;;49.47;31.40;;;8.10;83.20;;;;;;5028637;28;20429;-73
2022/11/14 02:10:04;;;;;;;44.63;26.52;;;8.20;83.40;;;;;;5026750;28;20057;-75
2022/11/14 02:12:40;;;;;;;;;;;;;;;;;;;;;
2022/11/14 02:15:10;;;;;;;48.05;28.95;;;8.10;85.40;;;;;;5019640;28;20036;-74
2022/11/14 02:17:36;;;;;;;;;;;8.00;84.80;;;;;;5017941;28;20059;-74
2022/11/14 02:20:22;;;;;;;47.22;27.75;;;8.00;84.50;;;;;;5018669;28;20356;-73
2022/11/14 02:22:51;;;;;;;43.15;25.15;;;7.90;85.00;;;;;;5016521;28;20042;-74
2022/11/14 02:25:24;;;;;;;43.08;27.52;;;7.90;84.90;;;;;;5019360;28;20056;-74
2022/11/14 02:27:50;;;;;;;43.10;27.27;;;7.90;84.90;;;;;;5020286;28;20029;-74
2022/11/14 02:30:22;;;;;;;52.70;31.50;;;7.90;84.60;;;;;;5020634;28;20029;-73
2022/11/14 02:32:48;;;;;;;40.42;24.27;;;7.90;84.30;;;;;;5013606;28;20075;-72
2022/11/14 02:35:14;;;;;;;47.00;27.73;;;8.00;84.60;;;;;;5021548;28;20026;-75
2022/11/14 02:37:43;;;;;;;45.17;26.02;;;7.90;84.60;;;;;;5017597;28;20507;-74
2022/11/14 02:40:09;;;;;;;43.10;25.48;;;7.90;85.00;;;;;;5018546;28;20347;-75
2022/11/14 02:42:43;;;;;;;49.55;31.08;;;7.90;84.70;;;;;;5018351;28;20029;-74
2022/11/14 02:45:10;;;;;;;55.10;31.95;;;7.80;84.60;;;;;;5019559;28;20033;-74
2022/11/14 02:47:36;;;;;;;53.97;33.17;;;7.80;84.80;;;;;;5016803;28;20013;-75
2022/11/14 02:50:02;;;;;;;46.33;28.23;;;7.80;84.40;;;;;;5013904;28;20026;-74
2022/11/14 02:52:27;;;;;;;46.90;29.45;;;7.80;84.90;;;;;;5020090;28;20105;-75
2022/11/14 02:54:53;;;;;;;46.65;28.75;;;7.80;84.80;;;;;;5016109;28;20246;-74
2022/11/14 02:57:19;;;;;;;42.63;27.02;;;7.80;84.60;;;;;;5018225;28;20040;-74
2022/11/14 02:59:44;;;;;;;54.15;32.70;;;7.80;84.90;;;;;;5016579;28;20030;-74
2022/11/14 03:02:10;;;;;;;47.72;28.77;;;7.80;84.60;;;;;;5020805;28;20040;-74
2022/11/14 03:04:36;;;;;;;51.20;30.67;;;7.80;84.60;;;;;;5022190;28;20033;-74
2022/11/14 03:07:01;;;;;;;51.78;29.13;;;7.70;84.70;;;;;;5018620;28;20061;-73
2022/11/14 03:09:27;;;;;;;53.15;32.40;;;7.70;84.50;;;;;;5015643;28;20039;-73
2022/11/14 03:11:52;;;;;;;52.10;33.13;;;7.70;84.80;;;;;;5022312;28;20014;-75
2022/11/14 03:14:18;;;;;;;51.38;29.85;;;7.70;84.50;;;;;;5015845;28;20041;-74
2022/11/14 03:16:44;;;;;;;46.97;27.50;;;7.70;84.40;;;;;;5019795;28;20025;-73
2022/11/14 03:19:09;;;;;;;53.25;31.25;;;7.70;84.30;;;;;;5027307;28;20041;-74
2022/11/14 03:21:35;;;;;;;53.47;32.63;;;7.70;84.30;;;;;;5025933;28;20108;-74
2022/11/14 03:24:00;;;;;;;48.38;27.05;;;7.70;84.80;;;;;;5008957;28;20741;-73
2022/11/14 03:26:27;;;;;;;48.20;29.98;;;7.70;85.60;;;;;;5021326;28;20044;-73
2022/11/14 03:28:54;;;;;;;42.30;24.67;;;7.70;85.30;;;;;;5018745;28;20026;-73
2022/11/14 03:31:20;;;;;;;48.03;28.50;;;7.70;85.40;;;;;;5031199;28;20056;-74
2022/11/14 03:33:45;;;;;;;46.80;27.80;;;7.60;85.00;;;;;;5021841;28;20026;-74
2022/11/14 03:36:11;;;;;;;41.67;23.95;;;7.60;84.80;;;;;;5015379;28;20060;-74
2022/11/14 03:38:37;;;;;;;47.10;29.77;;;7.60;85.40;;;;;;5026250;28;20017;-75
2022/11/14 03:41:02;;;;;;;47.25;28.90;;;7.60;85.50;;;;;;5025766;28;20017;-74
2022/11/14 03:43:33;;;;;;;48.05;30.38;;;7.60;85.10;;;;;;5019880;28;20029;-73
2022/11/14 03:46:00;;;;;;;49.70;29.27;;;7.60;84.80;;;;;;5020043;28;20038;-74
2022/11/14 03:48:28;;;;;;;41.03;24.63;;;7.60;84.40;;;;;;5025065;28;20099;-74
2022/11/14 03:50:53;;;;;;;49.35;28.85;;;7.60;84.40;;;;;;5011376;28;20033;-74
2022/11/14 03:53:19;;;;;;;50.95;31.52;;;7.60;84.80;;;;;;5022953;28;20029;-74
2022/11/14 03:55:45;;;;;;;51.03;30.98;;;7.60;84.40;;;;;;5024812;28;20036;-73
2022/11/14 03:58:11;;;;;;;46.17;25.98;;;7.60;85.00;;;;;;5019679;28;20032;-74
2022/11/14 04:00:37;;;;;;;48.47;28.52;;;7.60;84.50;;;;;;5024038;28;20026;-74
2022/11/14 04:03:02;;;;;;;47.55;27.23;;;7.50;84.50;;;;;;5015922;28;20017;-74
2022/11/14 04:05:28;;;;;;;48.47;29.52;;;7.50;84.60;;;;;;5020763;28;20041;-74
2022/11/14 04:07:54;;;;;;;49.95;30.05;;;7.50;84.30;;;;;;5015108;28;20097;-74
2022/11/14 04:10:20;;;;;;;54.85;32.22;;;7.50;84.30;;;;;;5025128;28;20479;-74
2022/11/14 04:12:50;;;;;;;40.72;23.67;;;7.50;84.30;;;;;;5015198;28;20061;-73
2022/11/14 04:15:16;;;;;;;46.22;26.40;;;7.50;84.80;;;;;;5020166;28;20095;-74
2022/11/14 04:17:44;;;;;;;49.90;28.35;;;7.50;84.50;;;;;;5023294;28;20018;-74
2022/11/14 04:20:11;;;;;;;50.15;30.10;;;7.50;84.30;;;;;;5021313;28;20827;-73
2022/11/14 04:22:37;;;;;;;50.10;29.60;;;7.50;84.10;;;;;;5008113;28;20092;-74
2022/11/14 04:25:03;;;;;;;45.80;27.67;;;7.40;84.50;;;;;;5027314;28;20049;-73
2022/11/14 04:27:30;;;;;;;43.10;26.58;;;7.40;84.40;;;;;;5019557;28;20034;-74
2022/11/14 04:29:55;;;;;;;40.85;23.38;;;7.30;84.60;;;;;;5024567;28;20029;-75
2022/11/14 04:32:21;;;;;;;53.92;28.73;;;7.40;84.80;;;;;;5011293;28;20373;-73
2022/11/14 04:34:47;;;;;;;45.83;26.25;;;7.30;84.60;;;;;;5022248;28;20037;-74
2022/11/14 04:37:12;;;;;;;47.22;27.75;;;7.30;84.60;;;;;;5014975;28;20387;-74
2022/11/14 04:39:38;;;;;;;49.10;29.13;;;7.30;84.60;;;;;;5027601;28;20087;-74
2022/11/14 04:42:04;;;;;;;49.13;28.63;;;7.30;84.60;;;;;;5011326;28;20029;-74
2022/11/14 04:44:29;;;;;;;48.38;29.55;;;7.30;84.70;;;;;;5017419;28;20018;-73
2022/11/14 04:46:56;;;;;;;49.47;28.25;;;7.30;84.60;;;;;;5024538;28;20025;-75
2022/11/14 04:49:22;;;;;;;51.67;28.58;;;7.30;84.40;;;;;;5014828;28;20025;-74
2022/11/14 04:51:48;;;;;;;49.85;28.90;;;7.30;84.60;;;;;;5021541;28;20470;-73
2022/11/14 04:54:13;;;;;;;49.78;28.98;;;7.30;84.60;;;;;;5016137;28;20018;-74
2022/11/14 04:56:39;;;;;;;49.55;29.45;;;7.30;84.50;;;;;;5025479;28;20088;-74
2022/11/14 04:59:04;;;;;;;55.95;30.48;;;7.20;84.50;;;;;;5026008;28;20109;-73
2022/11/14 05:01:30;;;;;;;50.10;30.02;;;7.20;84.60;;;;;;5015755;28;20052;-73
2022/11/14 05:03:56;;;;;;;53.42;29.95;;;7.20;84.60;;;;;;5024249;28;20040;-73
2022/11/14 05:06:22;;;;;;;52.67;30.92;;;7.20;84.50;;;;;;5030107;28;20495;-74
2022/11/14 05:08:47;;;;;;;47.78;27.00;;;7.20;84.70;;;;;;5021993;28;20027;-73
2022/11/14 05:11:15;;;;;;;40.85;25.15;;;7.20;85.10;;;;;;5026695;28;20026;-74
2022/11/14 05:13:42;;;;;;;51.08;29.77;;;7.20;84.90;;;;;;5021545;28;20022;-72
2022/11/14 05:16:08;;;;;;;49.28;29.20;;;7.10;84.90;;;;;;5021321;28;20025;-74
2022/11/14 05:18:33;;;;;;;46.97;27.35;;;7.10;84.80;;;;;;5012263;28;20028;-73
2022/11/14 05:21:00;;;;;;;54.05;30.98;;;7.10;85.00;;;;;;5017315;28;20071;-73
2022/11/14 05:23:26;;;;;;;56.42;30.42;;;7.10;85.00;;;;;;5013770;28;20038;-74
2022/11/14 05:26:02;;;;;;;45.60;27.27;;;7.10;84.90;;;;;;5020816;28;20041;-74
2022/11/14 05:28:29;;;;;;;45.85;24.60;;;7.00;85.00;;;;;;5015665;28;20034;-74
2022/11/14 05:31:01;;;;;;;52.30;29.42;;;6.90;85.20;;;;;;5029487;28;20024;-74
2022/11/14 05:33:27;;;;;;;54.25;29.50;;;6.90;86.00;;;;;;5021654;28;20538;-72
2022/11/14 05:35:53;;;;;;;45.38;25.45;;;6.90;85.70;;;;;;5019481;28;20030;-73
2022/11/14 05:38:19;;;;;;;46.20;25.52;;;6.90;85.50;;;;;;5026315;28;20071;-73
2022/11/14 05:40:44;;;;;;;49.40;28.17;;;7.00;85.40;;;;;;5015833;28;20018;-74
2022/11/14 05:43:11;;;;;;;55.58;30.35;;;6.90;85.30;;;;;;5012809;28;20029;-74
2022/11/14 05:45:37;;;;;;;54.40;30.42;;;6.90;85.50;;;;;;5026087;28;20083;-74
2022/11/14 05:48:03;;;;;;;53.88;29.45;;;6.90;85.50;;;;;;5017497;28;20026;-74
2022/11/14 05:50:28;;;;;;;54.03;31.08;;;6.90;86.10;;;;;;5020435;28;20029;-72
2022/11/14 05:52:55;;;;;;;45.40;24.00;;;6.90;86.10;;;;;;5029998;28;20017;-73
2022/11/14 05:55:21;;;;;;;55.35;31.00;;;6.90;86.70;;;;;;5019685;28;20022;-74
2022/11/14 05:57:47;;;;;;;48.65;28.02;;;6.90;86.90;;;;;;5027245;28;20038;-74
2022/11/14 06:00:13;;;;;;;44.78;25.73;;;6.90;86.40;;;;;;5029394;28;20025;-73
2022/11/14 06:02:39;;;;;;;50.28;27.55;;;6.90;86.60;;;;;;5023319;28;20046;-74
2022/11/14 06:05:04;;;;;;;41.60;23.00;;;6.90;87.30;;;;;;5017045;28;20056;-75
2022/11/14 06:07:30;;;;;;;53.03;30.60;;;6.80;87.30;;;;;;5022418;28;20491;-75
2022/11/14 06:09:56;;;;;;;53.85;30.42;;;6.80;87.10;;;;;;5022701;28;20044;-75
2022/11/14 06:12:21;;;;;;;45.55;26.13;;;6.80;86.80;;;;;;5022372;28;20067;-73
2022/11/14 06:14:47;;;;;;;43.65;23.17;;;6.80;86.40;;;;;;5023788;28;20377;-74
2022/11/14 06:17:13;;;;;;;49.00;28.95;;;6.80;86.30;;;;;;5018601;28;20096;-74
2022/11/14 06:19:38;;;;;;;43.22;25.40;;;6.80;86.40;;;;;;5015144;28;20096;-73
2022/11/14 06:22:04;;;;;;;43.58;25.38;;;6.80;86.70;;;;;;5018266;28;20044;-73
2022/11/14 06:24:29;;;;;;;48.00;28.00;;;6.80;86.50;;;;;;5021887;28;20046;-73
2022/11/14 06:26:55;;;;;;;47.35;26.17;;;6.80;86.70;;;;;;5016075;28;20042;-74
2022/11/14 06:29:21;;;;;;;47.10;26.95;;;6.70;86.30;;;;;;5019853;28;20029;-75
2022/11/14 06:31:46;;;;;;;43.20;24.52;;;6.70;86.20;;;;;;5015975;28;20092;-74
2022/11/14 06:34:12;;;;;;;44.80;25.63;;;6.70;86.10;;;;;;5021164;28;20014;-74
2022/11/14 06:36:38;;;;;;;42.22;23.17;;;6.70;86.10;;;;;;5017884;28;20100;-74
2022/11/14 06:39:04;;;;;;;48.53;29.08;;;6.70;86.20;;;;;;5023833;28;20067;-73
2022/11/14 06:41:29;;;;;;;40.33;22.25;;;6.80;86.30;;;;;;5016744;28;20108;-74
2022/11/14 06:43:55;;;;;;;48.50;28.35;;;6.80;86.60;;;;;;5017311;28;20045;-75
2022/11/14 06:46:22;;;;;;;43.15;23.23;;;6.70;86.20;;;;;;5033746;28;20065;-75
2022/11/14 06:48:49;;;;;;;45.45;24.98;;;6.70;86.70;;;;;;5023827;28;20021;-77
2022/11/14 06:51:15;;;;;;;41.88;24.20;;;6.60;86.40;;;;;;5014624;28;20064;-76
2022/11/14 06:53:42;;;;;;;55.20;26.10;;;6.70;88.30;;;;;;5018808;28;20029;-76
2022/11/14 06:56:11;;;;;;;55.22;27.67;;;7.30;90.60;;;;;;5020834;28;20029;-76
2022/11/14 06:58:45;;;;;;;55.58;29.42;;;8.20;91.20;;;;;;5020975;28;20029;-76
2022/11/14 07:01:13;;;;;;;44.92;24.70;;;8.90;91.20;;;;;;5016128;28;20678;-75
2022/11/14 07:03:40;;;;;;;33.95;19.20;;;9.60;91.40;;;;;;5015468;28;20484;-76
2022/11/14 07:06:06;;;;;;;30.92;19.08;;;10.10;91.10;;;;;;5014404;28;20080;-75
2022/11/14 07:08:33;;;;;;;30.17;19.10;;;10.40;90.60;;;;;;5017130;28;20037;-76
2022/11/14 07:11:32;;;;;;;32.08;19.10;;;10.80;90.00;;;;;;5015512;28;20025;-76
2022/11/14 07:13:59;;;;;;;27.85;17.92;;;11.00;88.50;;;;;;5013294;28;20108;-75
2022/11/14 07:16:30;;;;;;;29.60;18.45;;;11.30;87.20;;;;;;5010259;28;20125;-76
2022/11/14 07:18:56;;;;;;;28.63;17.75;;;11.50;85.70;;;;;;5010475;28;20116;-76
2022/11/14 07:21:22;;;;;;;27.60;17.23;;;11.60;84.80;;;;;;5021962;28;20021;-77
2022/11/14 07:23:48;;;;;;;25.17;17.75;;;11.60;83.40;;;;;;5015822;28;20041;-76
2022/11/14 07:26:14;;;;;;;27.38;16.73;;;11.80;83.00;;;;;;5018419;28;20030;-76
2022/11/14 07:28:42;;;;;;;26.55;17.45;;;11.90;81.50;;;;;;5016441;28;20038;-75
2022/11/14 07:31:13;;;;;;;24.92;16.15;;;12.00;81.70;;;;;;5016487;28;20045;-75
2022/11/14 07:33:40;;;;;;;19.95;13.55;;;12.10;80.00;;;;;;5017314;28;20058;-75
2022/11/14 07:36:07;;;;;;;23.70;15.32;;;12.40;79.80;;;;;;5017045;28;20136;-75
2022/11/14 07:38:33;;;;;;;25.10;16.20;;;12.80;78.10;;;;;;5017774;28;20073;-75
2022/11/14 07:41:10;;;;;;;23.27;15.23;;;13.30;76.70;;;;;;5015423;28;20052;-74
2022/11/14 07:43:36;;;;;;;22.75;15.27;;;13.90;74.50;;;;;;5010264;28;20044;-75
2022/11/14 07:46:14;;;;;;;21.20;14.90;;;14.30;72.40;;;;;;5018037;28;20026;-75
2022/11/14 07:48:40;;;;;;;21.83;15.52;;;14.70;71.60;;;;;;5006811;28;20057;-74
2022/11/14 07:51:09;;;;;;;22.02;14.35;;;15.00;70.10;;;;;;5018639;28;20033;-74
2022/11/14 07:53:35;;;;;;;21.60;15.13;;;15.30;68.90;;;;;;5014094;28;20108;-76
2022/11/14 07:56:03;;;;;;;22.88;14.95;;;15.70;68.20;;;;;;5019965;28;20112;-73
2022/11/14 07:58:29;;;;;;;20.55;13.95;;;16.00;66.00;;;;;;5016731;28;20022;-73
2022/11/14 08:01:01;;;;;;;21.80;14.73;;;16.30;65.00;;;;;;5021126;28;20049;-73
2022/11/14 08:03:27;;;;;;;18.98;13.27;;;16.70;64.70;;;;;;5026994;28;20040;-73
2022/11/14 08:06:09;;;;;;;21.05;13.98;;;16.90;63.40;;;;;;5015428;28;20041;-73
2022/11/14 08:08:35;;;;;;;17.42;12.90;;;17.00;62.60;;;;;;5021445;28;20476;-72
2022/11/14 08:11:02;;;;;;;17.90;13.18;;;17.10;61.80;;;;;;5014874;28;20040;-73
2022/11/14 08:13:29;;;;;;;22.48;14.35;;;17.20;61.30;;;;;;5023601;28;20306;-73
2022/11/14 08:15:55;;;;;;;16.35;11.23;;;17.20;60.90;;;;;;5011962;28;20510;-74
2022/11/14 08:18:20;;;;;;;15.93;11.40;;;17.30;60.80;;;;;;5023921;28;20022;-72
2022/11/14 08:20:46;;;;;;;18.17;11.68;;;17.20;59.90;;;;;;5011380;28;20491;-72
2022/11/14 08:23:12;;;;;;;14.10;10.75;;;17.30;59.60;;;;;;5027172;28;20535;-73
2022/11/14 08:25:38;;;;;;;16.33;11.52;;;17.40;59.60;;;;;;5015732;28;20038;-74
2022/11/14 08:28:04;;;;;;;14.80;10.25;;;17.40;59.40;;;;;;5024922;28;20116;-73
2022/11/14 08:30:30;;;;;;;15.05;11.23;;;17.30;59.30;;;;;;5017057;28;20101;-73
2022/11/14 08:32:55;;;;;;;14.52;10.85;;;17.30;58.60;;;;;;5018712;28;20084;-74
2022/11/14 08:35:22;;;;;;;16.48;11.77;;;17.70;58.10;;;;;;5015204;28;20465;-72
2022/11/14 08:37:47;;;;;;;14.40;10.57;;;17.80;57.80;;;;;;5027088;28;20049;-73
2022/11/14 08:40:13;;;;;;;15.43;10.32;;;18.00;57.60;;;;;;5031401;28;20464;-73
2022/11/14 08:42:39;;;;;;;14.23;10.32;;;17.80;57.40;;;;;;5029477;28;20037;-75
2022/11/14 08:45:05;;;;;;;15.57;9.90;;;17.60;58.30;;;;;;5025036;28;20475;-74
2022/11/14 08:47:30;;;;;;;14.38;10.10;;;17.40;58.70;;;;;;5019922;28;20017;-73
2022/11/14 08:49:56;;;;;;;14.32;10.45;;;17.30;58.90;;;;;;5020969;28;20033;-74
2022/11/14 08:52:22;;;;;;;12.32;8.70;;;17.40;58.80;;;;;;5016553;28;20025;-73
2022/11/14 08:54:47;;;;;;;13.68;9.38;;;17.50;59.10;;;;;;5014617;28;20100;-73
2022/11/14 08:57:14;;;;;;;14.52;9.90;;;17.40;59.30;;;;;;5024913;28;20025;-72
2022/11/14 08:59:42;;;;;;;14.30;9.40;;;17.40;59.60;;;;;;5021489;28;20475;-72
2022/11/14 09:02:12;;;;;;;14.38;8.98;;;17.60;59.80;;;;;;5021376;28;20036;-73
2022/11/14 09:04:38;;;;;;;13.68;8.73;;;17.70;59.50;;;;;;5024806;28;20104;-74
2022/11/14 09:07:04;;;;;;;13.10;9.50;;;17.80;59.00;;;;;;5021241;28;20048;-72
2022/11/14 09:09:30;;;;;;;12.75;8.80;;;18.00;58.10;;;;;;5024658;28;20026;-72
2022/11/14 09:11:56;;;;;;;11.65;7.95;;;18.20;58.00;;;;;;5017073;28;20109;-73
2022/11/14 09:14:21;;;;;;;12.80;8.55;;;18.30;58.20;;;;;;5021643;28;20033;-73
2022/11/14 09:16:47;;;;;;;12.75;8.38;;;18.40;58.30;;;;;;5012434;28;20100;-73
2022/11/14 09:19:16;;;;;;;13.23;8.20;;;18.60;58.30;;;;;;5022423;28;20486;-73
2022/11/14 09:21:41;;;;;;;10.40;7.63;;;18.70;58.40;;;;;;5016646;28;20056;-73
2022/11/14 09:24:08;;;;;;;9.82;6.85;;;18.70;58.60;;;;;;5019058;28;21091;-73
2022/11/14 09:26:34;;;;;;;10.07;7.05;;;18.70;59.00;;;;;;5016801;28;20037;-74
2022/11/14 09:29:01;;;;;;;10.13;6.75;;;18.70;59.40;;;;;;5021302;28;20018;-74
2022/11/14 09:31:26;;;;;;;9.90;6.90;;;18.70;60.00;;;;;;5017808;28;20114;-75
2022/11/14 09:33:52;;;;;;;9.68;6.40;;;18.70;59.70;;;;;;5018462;28;20021;-72
2022/11/14 09:36:18;;;;;;;9.18;6.38;;;18.90;59.80;;;;;;5021036;28;20384;-73
2022/11/14 09:38:45;;;;;;;10.70;7.35;;;18.90;60.30;;;;;;5015968;28;20142;-72
2022/11/14 09:41:36;;;;;;;9.90;6.63;;;18.80;60.80;;;;;;5025258;28;20022;-73
2022/11/14 09:44:25;;;;;;;9.35;6.55;;;18.80;60.90;;;;;;5022119;28;20025;-74
2022/11/14 09:47:26;;;;;;;9.30;5.97;;;18.80;62.10;;;;;;5019811;28;20036;-73
2022/11/14 09:49:59;;;;;;;8.32;6.30;;;18.70;63.70;;;;;;5017620;28;20069;-73
2022/11/14 09:52:30;;;;;;;10.57;7.22;;;18.70;64.10;;;;;;5017823;28;20022;-73
2022/11/14 09:55:01;;;;;;;11.52;7.10;;;18.30;64.80;;;;;;5016832;28;20026;-73
2022/11/14 09:57:28;;;;;;;10.93;7.10;;;18.30;65.60;;;;;;5016772;28;20495;-74
2022/11/14 09:59:55;;;;;;;11.10;6.55;;;18.10;66.50;;;;;;5020509;28;20025;-73
2022/11/14 10:02:33;;;;;;;12.88;7.82;;;17.90;67.60;;;;;;5021373;28;20033;-73
2022/11/14 10:04:58;;;;;;;17.65;12.77;;;17.70;68.10;;;;;;5018376;28;20488;-74
2022/11/14 10:08:01;;;;;;;22.38;15.55;;;17.70;64.70;;;;;;5013917;28;20033;-74
2022/11/14 10:10:51;;;;;;;21.90;15.80;;;17.30;54.10;;;;;;5021462;28;20096;-75
2022/11/14 10:13:34;;;;;;;19.88;16.45;;;16.80;52.80;;;;;;5017952;28;20108;-75
2022/11/14 10:16:17;;;;;;;18.58;12.40;;;16.30;53.30;;;;;;5019806;28;20033;-75
2022/11/14 10:19:22;;;;;;;23.05;16.98;;;16.00;61.60;;;;;;5015293;28;20562;-73
2022/11/14 10:21:58;;;;;;;24.00;16.63;;;15.60;55.80;;;;;;5026468;28;20067;-75
2022/11/14 10:24:53;;;;;;;21.30;16.33;;;15.60;57.70;;;;;;5017758;28;20117;-75
2022/11/14 10:27:32;;;;;;;16.27;11.57;;;15.50;59.80;;;;;;5021127;28;20041;-73
2022/11/14 10:30:07;;;;;;;16.75;12.65;;;15.40;63.20;;;;;;5018831;28;20510;-74
2022/11/14 10:33:09;;;;;;;21.13;15.00;;;15.20;62.20;;;;;;5021747;28;20068;-73
2022/11/14 10:35:36;;;;;;;18.65;12.60;;;14.90;62.80;;;;;;5021599;28;20583;-74
2022/11/14 10:38:23;;;;;;;20.48;14.43;;;14.60;64.40;;;;;;5020335;28;20029;-73
2022/11/14 10:40:54;;;;;;;18.80;13.30;;;14.30;65.40;;;;;;5021681;28;20029;-74
2022/11/14 10:43:43;;;;;;;19.27;13.23;;;14.40;70.00;;;;;;5015060;28;20026;-74
2022/11/14 10:46:15;;;;;;;17.27;11.85;;;14.40;64.10;;;;;;5031998;28;20053;-73
2022/11/14 10:48:48;;;;;;;16.38;11.32;;;14.50;69.10;;;;;;5022566;28;20040;-73
2022/11/14 10:51:14;;;;;;;17.52;13.15;;;14.40;64.80;;;;;;5022872;28;20018;-75
2022/11/14 10:54:04;;;;;;;21.20;15.25;;;14.40;65.80;;;;;;5018695;28;20041;-74
2022/11/14 10:56:30;;;;;;;21.38;15.50;;;14.20;64.40;;;;;;5024854;28;20484;-73
2022/11/14 10:58:55;;;;;;;19.50;14.27;;;14.30;65.30;;;;;;5019918;28;20041;-74
2022/11/14 11:01:52;;;;;;;22.27;16.77;;;14.40;64.60;;;;;;5026853;28;20439;-74
2022/11/14 11:04:22;;;;;;;24.50;17.58;;;14.50;62.70;;;;;;5023274;28;20025;-75
2022/11/14 11:06:49;;;;;;;22.90;16.35;;;14.50;62.70;;;;;;5017986;28;20084;-74
2022/11/14 11:12:20;;;;;;;19.65;14.20;;;14.40;70.10;;;;;;5014349;28;20079;-74
2022/11/14 11:14:49;;;;;;;17.92;13.50;;;14.30;69.10;;;;;;5010141;28;20560;-74
2022/11/14 11:17:19;;;;;;;19.60;15.15;;;14.20;66.90;;;;;;5014840;28;20076;-74
2022/11/14 11:19:47;;;;;;;;;;;14.10;65.20;;;;;;5017598;28;20084;-74
2022/11/14 11:22:25;;;;;;;20.10;13.93;;;14.10;66.50;;;;;;5013642;28;19913;-74
2022/11/14 11:24:51;;;;;;;22.55;14.68;;;14.20;67.30;;;;;;5006437;28;20698;-74
2022/11/14 11:27:26;;;;;;;23.70;15.85;;;14.10;68.70;;;;;;5025138;28;20025;-74
2022/11/14 11:30:08;;;;;;;25.77;17.50;;;13.90;69.30;;;;;;5014830;28;20484;-75
2022/11/14 11:32:34;;;;;;;24.40;16.02;;;13.60;68.80;;;;;;5014178;28;20025;-75
2022/11/14 11:35:02;;;;;;;23.17;15.32;;;13.40;72.40;;;;;;5025893;28;20017;-76
2022/11/14 11:37:38;;;;;;;25.77;17.40;;;13.10;72.00;;;;;;5023132;28;20048;-73
2022/11/14 11:40:11;;;;;;;30.15;19.80;;;12.80;71.20;;;;;;5014457;28;20617;-73
2022/11/14 11:42:39;;;;;;;21.48;15.98;;;12.60;75.60;;;;;;5018271;28;20026;-74
2022/11/14 11:45:16;;;;;;;29.88;21.65;;;12.50;75.30;;;;;;5017389;28;20108;-75
2022/11/14 11:47:55;;;;;;;31.85;21.38;;;12.30;75.00;;;;;;5016704;28;20087;-72
2022/11/14 11:50:23;;;;;;;33.63;25.45;;;12.10;76.10;;;;;;5017999;28;20819;-74
2022/11/14 11:53:26;;;;;;;31.88;23.10;;;12.00;78.30;;;;;;5017445;28;20035;-72
2022/11/14 11:56:17;;;;;;;28.20;18.88;;;11.90;80.30;;;;;;5012978;28;20022;-73
2022/11/14 11:58:46;;;;;;;30.00;21.10;;;11.70;82.30;;;;;;5022305;28;20053;-73
2022/11/14 12:01:15;;;;;;;30.73;18.42;;;11.60;79.30;;;;;;5027547;28;20028;-73
2022/11/14 12:03:52;;;;;;;31.48;21.77;;;11.50;83.30;;;;;;5024286;28;20793;-73
2022/11/14 12:06:23;;;;;;;31.10;21.83;;;11.30;78.50;;;;;;5025471;28;20360;-75
2022/11/14 12:09:11;;;;;;;34.53;23.58;;;11.20;80.30;;;;;;5017595;28;20041;-72
2022/11/14 12:11:39;;;;;;;29.85;21.05;;;11.10;79.70;;;;;;5016153;28;20029;-73
2022/11/14 12:14:44;;;;;;;31.73;20.05;;;11.00;80.90;;;;;;5018215;28;20061;-72
2022/11/14 12:17:15;;;;;;;26.50;18.33;;;10.90;81.60;;;;;;5011528;28;20054;-73
2022/11/14 12:20:01;;;;;;;31.15;21.55;;;11.10;86.50;;;;;;5007508;28;20036;-73
2022/11/14 12:22:26;;;;;;;33.33;24.23;;;11.10;86.60;;;;;;5014281;28;20071;-73
2022/11/14 12:25:31;;;;;;;25.45;17.25;;;11.20;87.40;;;;;;5020094;28;20081;-72
2022/11/14 12:28:07;;;;;;;29.40;19.23;;;11.10;84.60;;;;;;5004451;28;20041;-74
2022/11/14 12:30:34;;;;;;;27.40;18.20;;;10.90;82.30;;;;;;5019555;28;20124;-74
2022/11/14 12:33:14;;;;;;;17.02;10.73;;;11.00;87.30;;;;;;5018289;28;20027;-74
2022/11/14 12:35:48;;;;;;;;;;;11.10;90.00;;;;;;5016410;28;20030;-73
2022/11/14 12:38:18;;;;;;;30.00;20.45;;;11.10;87.40;;;;;;5009261;28;19940;-72
2022/11/14 12:40:55;;;;;;;32.00;21.92;;;11.10;85.90;;;;;;5017561;28;20030;-74
2022/11/14 12:43:34;;;;;;;27.30;18.73;;;11.10;86.20;;;;;;5008346;28;20034;-73
2022/11/14 12:46:06;;;;;;;27.60;18.67;;;11.10;86.00;;;;;;5018155;28;20494;-73
2022/11/14 12:48:34;;;;;;;30.33;21.77;;;11.00;87.60;;;;;;5007958;28;20042;-72
2022/11/14 12:51:01;;;;;;;37.03;24.13;;;11.10;86.10;;;;;;5015900;28;20036;-74